sensor_id;sensor_type;location;lat;lon;timestamp;P1;durP1;ratioP1;P2;durP2;ratioP2
57800;SDS011;43627;42.728;23.256;2022-09-09T00:00:31;18.65;;;10.07;;
57800;SDS011;43627;42.728;23.256;2022-09-09T00:11:51;18.35;;;9.93;;
57800;SDS011;43627;42.728;23.256;2022-09-09T00:15:14;16.25;;;10.18;;
57800;SDS011;43627;42.728;23.256;2022-09-09T00:23:31;14.02;;;8.70;;
57800;SDS011;43627;42.728;23.256;2022-09-09T00:28:45;13.65;;;9.68;;
57800;SDS011;43627;42.728;23.256;2022-09-09T00:31:20;11.75;;;9.23;;
57800;SDS011;43627;42.728;23.256;2022-09-09T00:34:18;12.70;;;10.13;;
57800;SDS011;43627;42.728;23.256;2022-09-09T00:36:45;15.90;;;10.40;;
57800;SDS011;43627;42.728;23.256;2022-09-09T00:39:22;11.35;;;10.15;;
57800;SDS011;43627;42.728;23.256;2022-09-09T00:42:16;21.50;;;10.10;;
57800;SDS011;43627;42.728;23.256;2022-09-09T00:56:13;17.48;;;11.25;;
57800;SDS011;43627;42.728;23.256;2022-09-09T00:58:43;19.38;;;11.73;;
57800;SDS011;43627;42.728;23.256;2022-09-09T01:01:29;16.23;;;10.77;;
57800;SDS011;43627;42.728;23.256;2022-09-09T01:03:56;14.40;;;10.65;;
57800;SDS011;43627;42.728;23.256;2022-09-09T01:06:36;20.38;;;10.25;;
57800;SDS011;43627;42.728;23.256;2022-09-09T01:17:11;12.88;;;10.35;;
57800;SDS011;43627;42.728;23.256;2022-09-09T01:27:29;19.92;;;10.15;;
57800;SDS011;43627;42.728;23.256;2022-09-09T01:29:56;13.35;;;10.35;;
57800;SDS011;43627;42.728;23.256;2022-09-09T01:35:04;12.43;;;9.45;;
57800;SDS011;43627;42.728;23.256;2022-09-09T01:37:51;17.20;;;9.95;;
57800;SDS011;43627;42.728;23.256;2022-09-09T01:40:18;14.02;;;9.15;;
57800;SDS011;43627;42.728;23.256;2022-09-09T01:42:45;15.35;;;10.68;;
57800;SDS011;43627;42.728;23.256;2022-09-09T01:45:12;13.50;;;9.73;;
57800;SDS011;43627;42.728;23.256;2022-09-09T01:47:39;18.67;;;10.50;;
57800;SDS011;43627;42.728;23.256;2022-09-09T01:50:06;11.48;;;9.45;;
57800;SDS011;43627;42.728;23.256;2022-09-09T01:52:37;14.60;;;10.10;;
57800;SDS011;43627;42.728;23.256;2022-09-09T01:55:04;15.07;;;10.38;;
57800;SDS011;43627;42.728;23.256;2022-09-09T02:00:11;13.57;;;10.93;;
57800;SDS011;43627;42.728;23.256;2022-09-09T02:05:36;14.02;;;10.52;;
57800;SDS011;43627;42.728;23.256;2022-09-09T02:08:26;15.57;;;11.27;;
57800;SDS011;43627;42.728;23.256;2022-09-09T02:13:37;15.63;;;11.23;;
57800;SDS011;43627;42.728;23.256;2022-09-09T02:16:10;18.25;;;12.20;;
57800;SDS011;43627;42.728;23.256;2022-09-09T02:18:47;16.25;;;11.88;;
57800;SDS011;43627;42.728;23.256;2022-09-09T02:21:14;18.00;;;12.93;;
57800;SDS011;43627;42.728;23.256;2022-09-09T02:23:43;16.45;;;11.57;;
57800;SDS011;43627;42.728;23.256;2022-09-09T02:26:13;16.60;;;11.77;;
57800;SDS011;43627;42.728;23.256;2022-09-09T02:28:46;13.02;;;9.90;;
57800;SDS011;43627;42.728;23.256;2022-09-09T02:31:19;17.10;;;11.65;;
57800;SDS011;43627;42.728;23.256;2022-09-09T02:33:51;18.33;;;11.38;;
57800;SDS011;43627;42.728;23.256;2022-09-09T02:36:22;14.52;;;11.13;;
57800;SDS011;43627;42.728;23.256;2022-09-09T02:38:52;15.67;;;12.50;;
57800;SDS011;43627;42.728;23.256;2022-09-09T02:41:20;16.45;;;11.70;;
57800;SDS011;43627;42.728;23.256;2022-09-09T02:43:51;17.77;;;11.30;;
57800;SDS011;43627;42.728;23.256;2022-09-09T02:48:54;15.90;;;12.60;;
57800;SDS011;43627;42.728;23.256;2022-09-09T02:54:35;16.23;;;12.50;;
57800;SDS011;43627;42.728;23.256;2022-09-09T02:57:23;18.02;;;12.00;;
57800;SDS011;43627;42.728;23.256;2022-09-09T02:59:55;19.00;;;11.48;;
57800;SDS011;43627;42.728;23.256;2022-09-09T03:02:24;20.30;;;12.43;;
57800;SDS011;43627;42.728;23.256;2022-09-09T03:04:51;16.90;;;11.40;;
57800;SDS011;43627;42.728;23.256;2022-09-09T03:07:18;13.18;;;11.35;;
57800;SDS011;43627;42.728;23.256;2022-09-09T03:09:45;13.32;;;10.88;;
57800;SDS011;43627;42.728;23.256;2022-09-09T03:12:12;15.30;;;12.52;;
57800;SDS011;43627;42.728;23.256;2022-09-09T03:14:39;18.20;;;12.63;;
57800;SDS011;43627;42.728;23.256;2022-09-09T03:17:06;18.88;;;12.43;;
57800;SDS011;43627;42.728;23.256;2022-09-09T03:19:32;14.10;;;11.95;;
57800;SDS011;43627;42.728;23.256;2022-09-09T03:22:01;21.63;;;12.13;;
57800;SDS011;43627;42.728;23.256;2022-09-09T03:24:28;16.67;;;11.75;;
57800;SDS011;43627;42.728;23.256;2022-09-09T03:26:54;15.85;;;12.30;;
57800;SDS011;43627;42.728;23.256;2022-09-09T03:29:22;14.43;;;11.05;;
57800;SDS011;43627;42.728;23.256;2022-09-09T03:31:48;19.73;;;12.05;;
57800;SDS011;43627;42.728;23.256;2022-09-09T03:34:16;16.75;;;12.27;;
57800;SDS011;43627;42.728;23.256;2022-09-09T03:36:43;20.77;;;12.93;;
57800;SDS011;43627;42.728;23.256;2022-09-09T03:39:10;17.48;;;12.10;;
57800;SDS011;43627;42.728;23.256;2022-09-09T03:41:36;16.75;;;12.48;;
57800;SDS011;43627;42.728;23.256;2022-09-09T03:44:03;16.42;;;12.15;;
57800;SDS011;43627;42.728;23.256;2022-09-09T03:46:30;19.00;;;11.55;;
57800;SDS011;43627;42.728;23.256;2022-09-09T03:48:57;15.25;;;12.38;;
57800;SDS011;43627;42.728;23.256;2022-09-09T03:51:24;16.52;;;12.18;;
57800;SDS011;43627;42.728;23.256;2022-09-09T03:53:50;19.65;;;13.55;;
57800;SDS011;43627;42.728;23.256;2022-09-09T03:56:17;14.50;;;12.07;;
57800;SDS011;43627;42.728;23.256;2022-09-09T03:58:44;25.42;;;13.30;;
57800;SDS011;43627;42.728;23.256;2022-09-09T04:01:11;18.98;;;14.02;;
57800;SDS011;43627;42.728;23.256;2022-09-09T04:03:40;18.52;;;13.27;;
57800;SDS011;43627;42.728;23.256;2022-09-09T04:06:08;21.20;;;13.25;;
57800;SDS011;43627;42.728;23.256;2022-09-09T04:08:36;18.73;;;13.25;;
57800;SDS011;43627;42.728;23.256;2022-09-09T04:11:04;21.00;;;12.80;;
57800;SDS011;43627;42.728;23.256;2022-09-09T04:13:36;22.70;;;14.20;;
57800;SDS011;43627;42.728;23.256;2022-09-09T04:16:05;31.38;;;15.57;;
57800;SDS011;43627;42.728;23.256;2022-09-09T04:18:33;19.55;;;12.93;;
57800;SDS011;43627;42.728;23.256;2022-09-09T04:21:01;17.42;;;12.68;;
57800;SDS011;43627;42.728;23.256;2022-09-09T04:23:28;15.82;;;12.55;;
57800;SDS011;43627;42.728;23.256;2022-09-09T04:25:58;18.83;;;13.43;;
57800;SDS011;43627;42.728;23.256;2022-09-09T04:28:26;18.13;;;12.93;;
57800;SDS011;43627;42.728;23.256;2022-09-09T04:30:55;17.08;;;12.40;;
57800;SDS011;43627;42.728;23.256;2022-09-09T04:33:23;22.48;;;14.23;;
57800;SDS011;43627;42.728;23.256;2022-09-09T04:35:52;21.05;;;12.57;;
57800;SDS011;43627;42.728;23.256;2022-09-09T04:38:21;25.23;;;12.95;;
57800;SDS011;43627;42.728;23.256;2022-09-09T04:40:49;16.63;;;12.00;;
57800;SDS011;43627;42.728;23.256;2022-09-09T04:43:18;21.65;;;12.30;;
57800;SDS011;43627;42.728;23.256;2022-09-09T04:45:49;18.50;;;11.63;;
57800;SDS011;43627;42.728;23.256;2022-09-09T04:48:17;20.38;;;12.15;;
57800;SDS011;43627;42.728;23.256;2022-09-09T04:50:53;21.23;;;13.30;;
57800;SDS011;43627;42.728;23.256;2022-09-09T04:53:21;27.55;;;12.25;;
57800;SDS011;43627;42.728;23.256;2022-09-09T04:55:48;23.73;;;12.05;;
57800;SDS011;43627;42.728;23.256;2022-09-09T04:58:15;22.48;;;12.65;;
57800;SDS011;43627;42.728;23.256;2022-09-09T05:00:42;18.70;;;11.68;;
57800;SDS011;43627;42.728;23.256;2022-09-09T05:03:09;23.48;;;12.30;;
57800;SDS011;43627;42.728;23.256;2022-09-09T05:05:35;20.63;;;12.98;;
57800;SDS011;43627;42.728;23.256;2022-09-09T05:08:06;20.08;;;9.98;;
57800;SDS011;43627;42.728;23.256;2022-09-09T05:10:36;20.67;;;9.48;;
57800;SDS011;43627;42.728;23.256;2022-09-09T05:13:04;18.75;;;9.35;;
57800;SDS011;43627;42.728;23.256;2022-09-09T05:15:32;18.67;;;8.95;;
57800;SDS011;43627;42.728;23.256;2022-09-09T05:17:59;18.85;;;9.27;;
57800;SDS011;43627;42.728;23.256;2022-09-09T05:20:27;32.17;;;9.75;;
57800;SDS011;43627;42.728;23.256;2022-09-09T05:22:54;16.85;;;8.43;;
57800;SDS011;43627;42.728;23.256;2022-09-09T05:25:21;12.63;;;8.68;;
57800;SDS011;43627;42.728;23.256;2022-09-09T05:27:48;14.18;;;7.78;;
57800;SDS011;43627;42.728;23.256;2022-09-09T05:30:15;12.50;;;8.55;;
57800;SDS011;43627;42.728;23.256;2022-09-09T05:32:45;14.93;;;8.88;;
57800;SDS011;43627;42.728;23.256;2022-09-09T05:35:12;13.30;;;7.30;;
57800;SDS011;43627;42.728;23.256;2022-09-09T05:37:39;15.10;;;8.10;;
57800;SDS011;43627;42.728;23.256;2022-09-09T05:40:06;14.82;;;7.93;;
57800;SDS011;43627;42.728;23.256;2022-09-09T05:42:33;14.68;;;7.47;;
57800;SDS011;43627;42.728;23.256;2022-09-09T05:45:00;14.60;;;8.80;;
57800;SDS011;43627;42.728;23.256;2022-09-09T05:47:26;12.30;;;7.25;;
57800;SDS011;43627;42.728;23.256;2022-09-09T05:49:54;13.77;;;8.50;;
57800;SDS011;43627;42.728;23.256;2022-09-09T05:52:21;22.40;;;8.75;;
57800;SDS011;43627;42.728;23.256;2022-09-09T05:54:49;14.43;;;8.05;;
57800;SDS011;43627;42.728;23.256;2022-09-09T05:57:16;17.73;;;8.95;;
57800;SDS011;43627;42.728;23.256;2022-09-09T05:59:43;14.82;;;9.05;;
57800;SDS011;43627;42.728;23.256;2022-09-09T06:02:10;11.20;;;8.60;;
57800;SDS011;43627;42.728;23.256;2022-09-09T06:04:36;15.45;;;9.30;;
57800;SDS011;43627;42.728;23.256;2022-09-09T06:07:04;15.95;;;9.77;;
57800;SDS011;43627;42.728;23.256;2022-09-09T06:09:31;14.73;;;10.75;;
57800;SDS011;43627;42.728;23.256;2022-09-09T06:11:58;16.15;;;9.63;;
57800;SDS011;43627;42.728;23.256;2022-09-09T06:14:25;17.63;;;10.07;;
57800;SDS011;43627;42.728;23.256;2022-09-09T06:16:53;16.20;;;9.73;;
57800;SDS011;43627;42.728;23.256;2022-09-09T06:19:19;16.08;;;9.23;;
57800;SDS011;43627;42.728;23.256;2022-09-09T06:21:46;22.33;;;10.20;;
57800;SDS011;43627;42.728;23.256;2022-09-09T06:24:14;18.10;;;10.63;;
57800;SDS011;43627;42.728;23.256;2022-09-09T06:26:43;15.30;;;8.57;;
57800;SDS011;43627;42.728;23.256;2022-09-09T06:29:11;15.73;;;9.18;;
57800;SDS011;43627;42.728;23.256;2022-09-09T06:31:38;15.93;;;8.98;;
57800;SDS011;43627;42.728;23.256;2022-09-09T06:34:06;16.92;;;8.90;;
57800;SDS011;43627;42.728;23.256;2022-09-09T06:36:34;15.45;;;8.00;;
57800;SDS011;43627;42.728;23.256;2022-09-09T06:39:03;17.63;;;12.40;;
57800;SDS011;43627;42.728;23.256;2022-09-09T06:41:33;18.20;;;10.23;;
57800;SDS011;43627;42.728;23.256;2022-09-09T06:44:00;12.40;;;7.43;;
57800;SDS011;43627;42.728;23.256;2022-09-09T06:46:28;18.13;;;7.68;;
57800;SDS011;43627;42.728;23.256;2022-09-09T06:48:58;11.90;;;7.07;;
57800;SDS011;43627;42.728;23.256;2022-09-09T06:51:27;14.50;;;8.02;;
57800;SDS011;43627;42.728;23.256;2022-09-09T06:53:57;13.20;;;6.82;;
57800;SDS011;43627;42.728;23.256;2022-09-09T06:56:26;12.57;;;7.88;;
57800;SDS011;43627;42.728;23.256;2022-09-09T06:58:58;17.02;;;7.25;;
57800;SDS011;43627;42.728;23.256;2022-09-09T07:01:31;19.00;;;8.50;;
57800;SDS011;43627;42.728;23.256;2022-09-09T07:04:00;13.35;;;8.30;;
57800;SDS011;43627;42.728;23.256;2022-09-09T07:06:30;12.25;;;7.63;;
57800;SDS011;43627;42.728;23.256;2022-09-09T07:08:59;17.35;;;8.63;;
57800;SDS011;43627;42.728;23.256;2022-09-09T07:11:28;13.35;;;7.85;;
57800;SDS011;43627;42.728;23.256;2022-09-09T07:13:57;14.00;;;7.78;;
57800;SDS011;43627;42.728;23.256;2022-09-09T07:16:25;12.70;;;7.90;;
57800;SDS011;43627;42.728;23.256;2022-09-09T07:18:53;8.98;;;7.07;;
57800;SDS011;43627;42.728;23.256;2022-09-09T07:21:24;12.15;;;8.13;;
57800;SDS011;43627;42.728;23.256;2022-09-09T07:23:53;9.95;;;7.05;;
57800;SDS011;43627;42.728;23.256;2022-09-09T07:26:21;22.98;;;8.05;;
57800;SDS011;43627;42.728;23.256;2022-09-09T07:28:49;12.40;;;7.38;;
57800;SDS011;43627;42.728;23.256;2022-09-09T07:31:17;11.55;;;6.93;;
57800;SDS011;43627;42.728;23.256;2022-09-09T07:33:47;14.48;;;6.97;;
57800;SDS011;43627;42.728;23.256;2022-09-09T07:36:19;15.15;;;6.93;;
57800;SDS011;43627;42.728;23.256;2022-09-09T07:38:49;14.10;;;6.82;;
57800;SDS011;43627;42.728;23.256;2022-09-09T07:41:23;20.80;;;8.60;;
57800;SDS011;43627;42.728;23.256;2022-09-09T07:44:03;13.57;;;7.50;;
57800;SDS011;43627;42.728;23.256;2022-09-09T07:46:35;12.55;;;7.00;;
57800;SDS011;43627;42.728;23.256;2022-09-09T07:49:02;13.05;;;7.68;;
57800;SDS011;43627;42.728;23.256;2022-09-09T07:51:30;14.05;;;5.97;;
57800;SDS011;43627;42.728;23.256;2022-09-09T07:54:02;17.45;;;7.38;;
57800;SDS011;43627;42.728;23.256;2022-09-09T07:56:31;10.80;;;5.68;;
57800;SDS011;43627;42.728;23.256;2022-09-09T07:58:59;14.43;;;6.03;;
57800;SDS011;43627;42.728;23.256;2022-09-09T08:01:29;11.52;;;6.03;;
57800;SDS011;43627;42.728;23.256;2022-09-09T08:04:01;13.07;;;6.00;;
57800;SDS011;43627;42.728;23.256;2022-09-09T08:06:31;13.85;;;6.15;;
57800;SDS011;43627;42.728;23.256;2022-09-09T08:08:59;10.18;;;5.82;;
57800;SDS011;43627;42.728;23.256;2022-09-09T08:11:27;13.60;;;5.53;;
57800;SDS011;43627;42.728;23.256;2022-09-09T08:13:55;13.25;;;5.35;;
57800;SDS011;43627;42.728;23.256;2022-09-09T08:16:29;13.65;;;6.40;;
57800;SDS011;43627;42.728;23.256;2022-09-09T08:18:58;8.15;;;5.47;;
57800;SDS011;43627;42.728;23.256;2022-09-09T08:21:29;20.85;;;7.35;;
57800;SDS011;43627;42.728;23.256;2022-09-09T08:23:58;17.67;;;6.68;;
57800;SDS011;43627;42.728;23.256;2022-09-09T08:26:30;11.98;;;6.20;;
57800;SDS011;43627;42.728;23.256;2022-09-09T08:29:00;10.40;;;5.70;;
57800;SDS011;43627;42.728;23.256;2022-09-09T08:31:34;7.70;;;5.10;;
57800;SDS011;43627;42.728;23.256;2022-09-09T08:34:03;9.32;;;5.40;;
57800;SDS011;43627;42.728;23.256;2022-09-09T08:36:33;18.27;;;6.05;;
57800;SDS011;43627;42.728;23.256;2022-09-09T08:39:08;15.40;;;5.13;;
57800;SDS011;43627;42.728;23.256;2022-09-09T08:50:31;10.43;;;5.40;;
57800;SDS011;43627;42.728;23.256;2022-09-09T08:53:02;12.30;;;5.32;;
57800;SDS011;43627;42.728;23.256;2022-09-09T08:55:54;15.68;;;5.68;;
57800;SDS011;43627;42.728;23.256;2022-09-09T08:58:26;11.52;;;5.57;;
57800;SDS011;43627;42.728;23.256;2022-09-09T09:11:40;8.30;;;5.45;;
57800;SDS011;43627;42.728;23.256;2022-09-09T09:14:18;12.55;;;5.57;;
57800;SDS011;43627;42.728;23.256;2022-09-09T09:16:53;10.18;;;5.97;;
57800;SDS011;43627;42.728;23.256;2022-09-09T09:19:23;10.52;;;5.88;;
57800;SDS011;43627;42.728;23.256;2022-09-09T09:29:52;10.75;;;6.10;;
57800;SDS011;43627;42.728;23.256;2022-09-09T09:35:22;8.27;;;5.25;;
57800;SDS011;43627;42.728;23.256;2022-09-09T09:37:50;13.07;;;5.63;;
57800;SDS011;43627;42.728;23.256;2022-09-09T09:40:36;9.88;;;5.50;;
57800;SDS011;43627;42.728;23.256;2022-09-09T09:43:03;12.70;;;6.00;;
57800;SDS011;43627;42.728;23.256;2022-09-09T09:45:41;10.82;;;5.55;;
57800;SDS011;43627;42.728;23.256;2022-09-09T09:48:30;12.18;;;5.55;;
57800;SDS011;43627;42.728;23.256;2022-09-09T09:50:59;10.13;;;5.78;;
57800;SDS011;43627;42.728;23.256;2022-09-09T09:53:33;11.83;;;6.20;;
57800;SDS011;43627;42.728;23.256;2022-09-09T09:56:03;7.72;;;5.18;;
57800;SDS011;43627;42.728;23.256;2022-09-09T10:01:22;7.70;;;6.10;;
57800;SDS011;43627;42.728;23.256;2022-09-09T10:03:52;14.40;;;5.75;;
57800;SDS011;43627;42.728;23.256;2022-09-09T10:06:33;15.68;;;6.07;;
57800;SDS011;43627;42.728;23.256;2022-09-09T10:09:03;11.90;;;5.28;;
57800;SDS011;43627;42.728;23.256;2022-09-09T10:11:38;11.43;;;5.60;;
57800;SDS011;43627;42.728;23.256;2022-09-09T10:25:22;10.65;;;5.75;;
57800;SDS011;43627;42.728;23.256;2022-09-09T10:31:07;14.05;;;6.38;;
57800;SDS011;43627;42.728;23.256;2022-09-09T10:33:41;14.35;;;6.38;;
57800;SDS011;43627;42.728;23.256;2022-09-09T10:38:41;14.85;;;6.07;;
57800;SDS011;43627;42.728;23.256;2022-09-09T10:41:13;14.60;;;6.25;;
57800;SDS011;43627;42.728;23.256;2022-09-09T10:46:31;14.98;;;6.65;;
57800;SDS011;43627;42.728;23.256;2022-09-09T11:00:06;13.23;;;6.00;;
57800;SDS011;43627;42.728;23.256;2022-09-09T11:02:41;15.75;;;6.50;;
57800;SDS011;43627;42.728;23.256;2022-09-09T11:05:27;14.25;;;6.18;;
57800;SDS011;43627;42.728;23.256;2022-09-09T11:10:25;15.52;;;6.13;;
57800;SDS011;43627;42.728;23.256;2022-09-09T11:13:20;13.38;;;6.25;;
57800;SDS011;43627;42.728;23.256;2022-09-09T11:15:53;14.38;;;6.80;;
57800;SDS011;43627;42.728;23.256;2022-09-09T11:18:26;15.15;;;6.07;;
57800;SDS011;43627;42.728;23.256;2022-09-09T11:20:58;11.48;;;5.53;;
57800;SDS011;43627;42.728;23.256;2022-09-09T11:23:33;10.13;;;6.75;;
57800;SDS011;43627;42.728;23.256;2022-09-09T11:26:10;8.00;;;5.22;;
57800;SDS011;43627;42.728;23.256;2022-09-09T11:34:27;10.18;;;5.43;;
57800;SDS011;43627;42.728;23.256;2022-09-09T11:42:27;12.75;;;6.40;;
57800;SDS011;43627;42.728;23.256;2022-09-09T11:44:54;7.03;;;5.38;;
57800;SDS011;43627;42.728;23.256;2022-09-09T11:47:25;11.15;;;5.97;;
57800;SDS011;43627;42.728;23.256;2022-09-09T11:52:42;11.65;;;6.13;;
57800;SDS011;43627;42.728;23.256;2022-09-09T11:57:59;7.63;;;5.70;;
57800;SDS011;43627;42.728;23.256;2022-09-09T12:00:30;12.20;;;5.45;;
57800;SDS011;43627;42.728;23.256;2022-09-09T12:03:04;6.10;;;5.15;;
57800;SDS011;43627;42.728;23.256;2022-09-09T12:05:39;10.52;;;5.90;;
57800;SDS011;43627;42.728;23.256;2022-09-09T12:08:15;9.40;;;5.53;;
57800;SDS011;43627;42.728;23.256;2022-09-09T12:10:55;10.27;;;5.85;;
57800;SDS011;43627;42.728;23.256;2022-09-09T12:13:24;9.95;;;5.95;;
57800;SDS011;43627;42.728;23.256;2022-09-09T12:15:53;15.15;;;6.15;;
57800;SDS011;43627;42.728;23.256;2022-09-09T12:18:31;11.55;;;6.10;;
57800;SDS011;43627;42.728;23.256;2022-09-09T12:21:16;9.50;;;6.00;;
57800;SDS011;43627;42.728;23.256;2022-09-09T12:23:47;11.52;;;5.78;;
57800;SDS011;43627;42.728;23.256;2022-09-09T12:29:50;11.13;;;5.78;;
57800;SDS011;43627;42.728;23.256;2022-09-09T12:32:24;11.05;;;5.72;;
57800;SDS011;43627;42.728;23.256;2022-09-09T12:34:53;9.85;;;6.05;;
57800;SDS011;43627;42.728;23.256;2022-09-09T12:38:12;10.57;;;6.45;;
57800;SDS011;43627;42.728;23.256;2022-09-09T12:40:29;13.50;;;6.87;;
57800;SDS011;43627;42.728;23.256;2022-09-09T12:43:15;11.00;;;6.82;;
57800;SDS011;43627;42.728;23.256;2022-09-09T12:45:43;12.38;;;7.15;;
57800;SDS011;43627;42.728;23.256;2022-09-09T12:48:11;15.35;;;6.85;;
57800;SDS011;43627;42.728;23.256;2022-09-09T12:50:48;10.65;;;6.80;;
57800;SDS011;43627;42.728;23.256;2022-09-09T12:55:59;9.98;;;5.40;;
57800;SDS011;43627;42.728;23.256;2022-09-09T12:58:29;12.02;;;6.30;;
57800;SDS011;43627;42.728;23.256;2022-09-09T13:03:32;12.32;;;5.57;;
57800;SDS011;43627;42.728;23.256;2022-09-09T13:06:16;14.57;;;5.60;;
57800;SDS011;43627;42.728;23.256;2022-09-09T13:08:51;15.30;;;5.20;;
57800;SDS011;43627;42.728;23.256;2022-09-09T13:11:23;12.25;;;5.20;;
57800;SDS011;43627;42.728;23.256;2022-09-09T13:14:05;7.60;;;5.07;;
57800;SDS011;43627;42.728;23.256;2022-09-09T13:16:34;11.27;;;5.28;;
57800;SDS011;43627;42.728;23.256;2022-09-09T13:19:09;17.48;;;6.05;;
57800;SDS011;43627;42.728;23.256;2022-09-09T13:21:40;11.90;;;5.90;;
57800;SDS011;43627;42.728;23.256;2022-09-09T13:27:01;11.50;;;4.95;;
57800;SDS011;43627;42.728;23.256;2022-09-09T13:29:33;16.23;;;5.45;;
57800;SDS011;43627;42.728;23.256;2022-09-09T13:32:12;8.63;;;5.53;;
57800;SDS011;43627;42.728;23.256;2022-09-09T13:34:59;11.30;;;5.40;;
57800;SDS011;43627;42.728;23.256;2022-09-09T13:37:33;8.48;;;5.32;;
57800;SDS011;43627;42.728;23.256;2022-09-09T13:40:03;11.45;;;5.72;;
57800;SDS011;43627;42.728;23.256;2022-09-09T13:42:36;10.30;;;5.30;;
57800;SDS011;43627;42.728;23.256;2022-09-09T13:45:16;11.23;;;5.47;;
57800;SDS011;43627;42.728;23.256;2022-09-09T13:47:49;11.38;;;5.63;;
57800;SDS011;43627;42.728;23.256;2022-09-09T13:50:26;13.10;;;5.78;;
57800;SDS011;43627;42.728;23.256;2022-09-09T13:52:57;7.20;;;4.85;;
57800;SDS011;43627;42.728;23.256;2022-09-09T13:55:25;13.73;;;5.32;;
57800;SDS011;43627;42.728;23.256;2022-09-09T13:57:57;12.75;;;5.97;;
57800;SDS011;43627;42.728;23.256;2022-09-09T14:00:29;13.60;;;4.63;;
57800;SDS011;43627;42.728;23.256;2022-09-09T14:02:57;15.15;;;5.10;;
57800;SDS011;43627;42.728;23.256;2022-09-09T14:05:24;15.00;;;4.88;;
57800;SDS011;43627;42.728;23.256;2022-09-09T14:07:51;7.82;;;4.75;;
57800;SDS011;43627;42.728;23.256;2022-09-09T14:10:18;9.77;;;4.72;;
57800;SDS011;43627;42.728;23.256;2022-09-09T14:12:45;9.48;;;4.85;;
57800;SDS011;43627;42.728;23.256;2022-09-09T14:15:12;13.32;;;4.70;;
57800;SDS011;43627;42.728;23.256;2022-09-09T14:17:40;11.80;;;5.03;;
57800;SDS011;43627;42.728;23.256;2022-09-09T14:20:08;8.43;;;4.88;;
57800;SDS011;43627;42.728;23.256;2022-09-09T14:22:37;16.13;;;5.60;;
57800;SDS011;43627;42.728;23.256;2022-09-09T14:25:05;10.60;;;4.78;;
57800;SDS011;43627;42.728;23.256;2022-09-09T14:27:32;7.35;;;4.45;;
57800;SDS011;43627;42.728;23.256;2022-09-09T14:29:59;10.45;;;5.15;;
57800;SDS011;43627;42.728;23.256;2022-09-09T14:32:28;11.05;;;5.47;;
57800;SDS011;43627;42.728;23.256;2022-09-09T14:34:55;21.70;;;5.25;;
57800;SDS011;43627;42.728;23.256;2022-09-09T14:37:22;11.48;;;5.03;;
57800;SDS011;43627;42.728;23.256;2022-09-09T14:39:48;11.65;;;5.18;;
57800;SDS011;43627;42.728;23.256;2022-09-09T14:42:16;8.25;;;4.75;;
57800;SDS011;43627;42.728;23.256;2022-09-09T14:44:44;8.75;;;4.55;;
57800;SDS011;43627;42.728;23.256;2022-09-09T14:47:10;11.23;;;4.97;;
57800;SDS011;43627;42.728;23.256;2022-09-09T14:49:37;9.48;;;5.43;;
57800;SDS011;43627;42.728;23.256;2022-09-09T14:52:08;12.73;;;5.25;;
57800;SDS011;43627;42.728;23.256;2022-09-09T14:54:35;11.63;;;5.43;;
57800;SDS011;43627;42.728;23.256;2022-09-09T14:57:02;13.32;;;5.63;;
57800;SDS011;43627;42.728;23.256;2022-09-09T14:59:29;12.60;;;5.43;;
57800;SDS011;43627;42.728;23.256;2022-09-09T15:01:55;15.82;;;4.93;;
57800;SDS011;43627;42.728;23.256;2022-09-09T15:04:22;13.52;;;5.78;;
57800;SDS011;43627;42.728;23.256;2022-09-09T15:06:49;11.45;;;5.50;;
57800;SDS011;43627;42.728;23.256;2022-09-09T15:09:18;10.02;;;5.05;;
57800;SDS011;43627;42.728;23.256;2022-09-09T15:11:45;10.57;;;4.95;;
57800;SDS011;43627;42.728;23.256;2022-09-09T15:14:12;6.03;;;4.47;;
57800;SDS011;43627;42.728;23.256;2022-09-09T15:16:38;11.57;;;4.75;;
57800;SDS011;43627;42.728;23.256;2022-09-09T15:19:05;9.63;;;4.55;;
57800;SDS011;43627;42.728;23.256;2022-09-09T15:21:33;8.70;;;4.45;;
57800;SDS011;43627;42.728;23.256;2022-09-09T15:24:02;8.25;;;5.05;;
57800;SDS011;43627;42.728;23.256;2022-09-09T15:26:29;10.43;;;4.88;;
57800;SDS011;43627;42.728;23.256;2022-09-09T15:28:56;11.38;;;5.28;;
57800;SDS011;43627;42.728;23.256;2022-09-09T15:31:28;15.50;;;4.95;;
57800;SDS011;43627;42.728;23.256;2022-09-09T15:33:58;13.88;;;5.57;;
57800;SDS011;43627;42.728;23.256;2022-09-09T15:38:59;11.05;;;5.28;;
57800;SDS011;43627;42.728;23.256;2022-09-09T15:41:27;11.70;;;5.70;;
57800;SDS011;43627;42.728;23.256;2022-09-09T15:43:55;13.60;;;5.95;;
57800;SDS011;43627;42.728;23.256;2022-09-09T15:49:16;7.63;;;5.25;;
57800;SDS011;43627;42.728;23.256;2022-09-09T15:51:45;8.60;;;5.60;;
57800;SDS011;43627;42.728;23.256;2022-09-09T15:54:15;15.73;;;6.40;;
57800;SDS011;43627;42.728;23.256;2022-09-09T15:56:45;11.38;;;5.68;;
57800;SDS011;43627;42.728;23.256;2022-09-09T15:59:14;15.05;;;5.97;;
57800;SDS011;43627;42.728;23.256;2022-09-09T16:01:41;8.32;;;5.35;;
57800;SDS011;43627;42.728;23.256;2022-09-09T16:04:09;14.02;;;6.18;;
57800;SDS011;43627;42.728;23.256;2022-09-09T16:06:36;12.05;;;6.10;;
57800;SDS011;43627;42.728;23.256;2022-09-09T16:09:03;10.80;;;5.97;;
57800;SDS011;43627;42.728;23.256;2022-09-09T16:11:32;13.23;;;6.00;;
57800;SDS011;43627;42.728;23.256;2022-09-09T16:14:01;15.18;;;5.80;;
57800;SDS011;43627;42.728;23.256;2022-09-09T16:16:30;13.38;;;5.78;;
57800;SDS011;43627;42.728;23.256;2022-09-09T16:18:58;17.80;;;9.25;;
57800;SDS011;43627;42.728;23.256;2022-09-09T16:21:29;22.23;;;11.15;;
57800;SDS011;43627;42.728;23.256;2022-09-09T16:23:58;16.95;;;8.35;;
57800;SDS011;43627;42.728;23.256;2022-09-09T16:26:26;18.23;;;8.70;;
57800;SDS011;43627;42.728;23.256;2022-09-09T16:28:54;16.08;;;8.05;;
57800;SDS011;43627;42.728;23.256;2022-09-09T16:31:23;10.48;;;6.88;;
57800;SDS011;43627;42.728;23.256;2022-09-09T16:33:50;14.25;;;6.90;;
57800;SDS011;43627;42.728;23.256;2022-09-09T16:36:18;7.65;;;6.30;;
57800;SDS011;43627;42.728;23.256;2022-09-09T16:38:57;12.10;;;6.20;;
57800;SDS011;43627;42.728;23.256;2022-09-09T16:41:25;12.05;;;6.75;;
57800;SDS011;43627;42.728;23.256;2022-09-09T16:43:54;12.77;;;7.65;;
57800;SDS011;43627;42.728;23.256;2022-09-09T16:46:22;12.23;;;7.18;;
57800;SDS011;43627;42.728;23.256;2022-09-09T16:48:50;21.58;;;9.93;;
57800;SDS011;43627;42.728;23.256;2022-09-09T16:51:22;26.25;;;10.95;;
57800;SDS011;43627;42.728;23.256;2022-09-09T16:53:51;16.30;;;9.13;;
57800;SDS011;43627;42.728;23.256;2022-09-09T16:56:20;15.07;;;8.20;;
57800;SDS011;43627;42.728;23.256;2022-09-09T16:58:55;21.27;;;8.65;;
57800;SDS011;43627;42.728;23.256;2022-09-09T17:01:24;14.00;;;7.57;;
57800;SDS011;43627;42.728;23.256;2022-09-09T17:03:55;14.88;;;7.10;;
57800;SDS011;43627;42.728;23.256;2022-09-09T17:06:26;17.08;;;7.47;;
57800;SDS011;43627;42.728;23.256;2022-09-09T17:08:56;12.45;;;8.13;;
57800;SDS011;43627;42.728;23.256;2022-09-09T17:11:24;13.98;;;6.95;;
57800;SDS011;43627;42.728;23.256;2022-09-09T17:13:51;11.38;;;6.43;;
57800;SDS011;43627;42.728;23.256;2022-09-09T17:16:19;13.13;;;7.45;;
57800;SDS011;43627;42.728;23.256;2022-09-09T17:18:50;11.77;;;7.85;;